Time;durP1;ratioP1;P1;durP2;ratioP2;P2;SDS_P1;SDS_P2;PMS_P1;PMS_P2;Temp;Humidity;BMP_temperature;BMP_pressure;BME280_temperature;BME280_humidity;BME280_pressure;Samples;Min_cycle;Max_cycle;Signal;HPM_P1;HPM_P2
2023/02/01 00:01:22;;;;;;;1.85;1.10;;;18.50;42.00;;;;;;6130043;23;20455;-80
2023/02/01 00:03:48;;;;;;;2.67;1.55;;;18.50;41.90;;;;;;6155927;23;20215;-80
2023/02/01 00:06:13;;;;;;;1.25;1.10;;;18.40;42.00;;;;;;6155990;23;20186;-80
2023/02/01 00:08:39;;;;;;;2.00;1.48;;;18.40;42.00;;;;;;6130075;23;20483;-80
2023/02/01 00:11:08;;;;;;;4.47;1.33;;;18.50;42.00;;;;;;6156041;23;20155;-80
2023/02/01 00:13:34;;;;;;;2.28;1.30;;;18.40;42.00;;;;;;6155848;23;20475;-81
2023/02/01 00:16:09;;;;;;;2.45;1.35;;;18.40;42.00;;;;;;6130023;23;20194;-80
2023/02/01 00:18:35;;;;;;;2.33;1.27;;;18.40;42.00;;;;;;6129794;23;20139;-80
2023/02/01 00:21:01;;;;;;;3.20;1.58;;;18.40;42.10;;;;;;6130453;23;20451;-81
2023/02/01 00:23:27;;;;;;;3.72;1.10;;;18.40;42.10;;;;;;6129998;23;20128;-80
2023/02/01 00:25:52;;;;;;;2.20;1.27;;;18.40;42.10;;;;;;6129786;23;20136;-80
2023/02/01 00:28:18;;;;;;;3.28;1.58;;;18.40;42.00;;;;;;6130312;23;20139;-80
2023/02/01 00:30:44;;;;;;;3.47;1.45;;;18.40;42.10;;;;;;6156067;23;20222;-80
2023/02/01 00:33:09;;;;;;;5.32;1.55;;;18.40;42.10;;;;;;6129687;23;20140;-81
2023/02/01 00:35:35;;;;;;;4.00;1.50;;;18.40;42.20;;;;;;6155444;23;20199;-80
2023/02/01 00:38:01;;;;;;;2.15;1.20;;;18.40;42.30;;;;;;6130101;23;20555;-80
2023/02/01 00:40:26;;;;;;;3.40;1.33;;;18.40;42.30;;;;;;6155714;23;20136;-82
2023/02/01 00:42:52;;;;;;;2.63;1.38;;;18.40;42.30;;;;;;6156428;23;20495;-80
2023/02/01 00:45:18;;;;;;;3.78;1.58;;;18.30;42.30;;;;;;6129794;23;20140;-81
2023/02/01 00:47:43;;;;;;;2.63;1.38;;;18.30;42.40;;;;;;6156027;23;20219;-80
2023/02/01 00:50:09;;;;;;;3.60;1.40;;;18.30;42.40;;;;;;6155939;23;20135;-80
2023/02/01 00:52:35;;;;;;;2.50;1.60;;;18.30;42.50;;;;;;6129784;23;20499;-81
2023/02/01 00:55:01;;;;;;;2.83;1.35;;;18.30;42.50;;;;;;6155741;23;20136;-80
2023/02/01 00:57:26;;;;;;;3.28;1.60;;;18.30;42.50;;;;;;6155549;23;20167;-81
2023/02/01 00:59:52;;;;;;;3.78;1.30;;;18.30;42.50;;;;;;6155656;23;20135;-81
2023/02/01 01:02:18;;;;;;;2.28;1.20;;;18.30;42.40;;;;;;6129509;23;20576;-80
2023/02/01 01:04:43;;;;;;;4.88;1.45;;;18.30;42.50;;;;;;6155894;23;20575;-81
2023/02/01 01:07:09;;;;;;;3.85;1.40;;;18.30;42.30;;;;;;6155930;23;20582;-80
2023/02/01 01:09:35;;;;;;;2.13;1.30;;;18.30;42.40;;;;;;6105226;23;20158;-80
2023/02/01 01:12:02;;;;;;;3.78;1.42;;;18.30;42.40;;;;;;6156763;23;20520;-81
2023/02/01 01:14:29;;;;;;;3.00;1.30;;;18.30;42.30;;;;;;6131959;23;20183;-80
2023/02/01 01:16:54;;;;;;;2.75;1.33;;;18.40;42.50;;;;;;6131484;23;20163;-81
2023/02/01 01:19:20;;;;;;;1.73;1.30;;;18.30;42.50;;;;;;6157529;23;20132;-80
2023/02/01 01:21:46;;;;;;;2.28;1.45;;;18.30;42.60;;;;;;6131460;23;20139;-81
2023/02/01 01:24:11;;;;;;;3.05;1.50;;;18.30;42.60;;;;;;6131418;23;20214;-81
2023/02/01 01:26:37;;;;;;;2.72;1.50;;;18.30;42.50;;;;;;6157511;23;20480;-80
2023/02/01 01:29:03;;;;;;;3.20;1.23;;;18.30;43.20;;;;;;6157620;23;20618;-80
2023/02/01 01:31:30;;;;;;;2.25;1.40;;;18.30;42.60;;;;;;6131362;23;20142;-81
2023/02/01 01:34:00;;;;;;;2.58;1.40;;;18.30;42.70;;;;;;6157370;23;20136;-80
2023/02/01 01:36:26;;;;;;;2.05;1.45;;;18.20;42.70;;;;;;6106734;23;20195;-80
2023/02/01 01:38:52;;;;;;;2.42;1.48;;;18.20;42.70;;;;;;6157632;23;20168;-80
2023/02/01 01:41:20;;;;;;;2.13;1.30;;;18.20;42.70;;;;;;6157566;23;20191;-80
2023/02/01 01:43:52;;;;;;;2.45;1.52;;;18.30;42.70;;;;;;6131462;23;20132;-80
2023/02/01 01:46:19;;;;;;;2.40;1.40;;;18.30;42.80;;;;;;6132384;23;20196;-80
2023/02/01 01:48:45;;;;;;;1.65;1.27;;;18.20;42.80;;;;;;6131147;23;20132;-80
2023/02/01 01:51:10;;;;;;;3.10;1.42;;;18.20;42.80;;;;;;6106685;23;20158;-80
2023/02/01 01:53:45;;;;;;;2.83;1.30;;;18.20;42.80;;;;;;6106810;23;20593;-80
2023/02/01 01:56:11;;;;;;;3.45;1.35;;;18.20;42.80;;;;;;6131047;23;20172;-80
2023/02/01 01:58:37;;;;;;;2.38;1.30;;;18.20;42.90;;;;;;6131159;23;20515;-81
2023/02/01 02:01:02;;;;;;;2.03;1.40;;;18.20;42.90;;;;;;6107318;23;20567;-80
2023/02/01 02:03:39;;;;;;;2.80;1.33;;;18.20;42.90;;;;;;6157015;23;20158;-80
2023/02/01 02:06:07;;;;;;;3.22;1.23;;;18.20;43.00;;;;;;6130961;23;20139;-81
2023/02/01 02:08:33;;;;;;;2.67;1.45;;;18.20;42.90;;;;;;6107484;23;20131;-80
2023/02/01 02:11:00;;;;;;;2.67;1.27;;;18.20;42.90;;;;;;6131117;23;20139;-81
2023/02/01 02:13:37;;;;;;;2.22;1.45;;;18.20;42.90;;;;;;6157481;23;20140;-80
2023/02/01 02:16:13;;;;;;;2.75;1.45;;;18.20;42.90;;;;;;6132380;23;20646;-80
2023/02/01 02:18:47;;;;;;;3.08;1.40;;;18.20;43.10;;;;;;6132812;23;20136;-80
2023/02/01 02:21:24;;;;;;;2.80;1.30;;;18.10;43.00;;;;;;6156867;23;20139;-81
2023/02/01 02:24:25;;;;;;;2.97;1.40;;;18.10;43.00;;;;;;6132729;23;20139;-80
2023/02/01 02:27:24;;;;;;;2.15;1.40;;;18.10;43.20;;;;;;6110517;23;20159;-80
2023/02/01 02:30:02;;;;;;;4.47;1.58;;;18.10;43.20;;;;;;6133077;23;20136;-80
2023/02/01 02:32:43;;;;;;;2.45;1.40;;;18.10;43.20;;;;;;6130711;23;20219;-80
2023/02/01 02:35:38;;;;;;;4.20;1.67;;;18.10;43.30;;;;;;6156477;23;20559;-80
2023/02/01 02:38:30;;;;;;;2.35;1.40;;;18.10;43.20;;;;;;6108738;23;20151;-81
2023/02/01 02:41:08;;;;;;;3.22;1.55;;;18.10;43.30;;;;;;6130681;23;20545;-80
2023/02/01 02:49:36;;;;;;;3.38;1.38;;;18.10;43.20;;;;;;6156618;23;20158;-80
2023/02/01 02:54:47;;;;;;;2.60;1.20;;;18.10;43.00;;;;;;6133420;23;20146;-80
2023/02/01 03:05:32;;;;;;;3.13;1.55;;;18.00;43.30;;;;;;6156481;23;20132;-80
2023/02/01 03:08:13;;;;;;;2.80;1.20;;;18.00;43.40;;;;;;6156420;23;20503;-80
2023/02/01 03:10:47;;;;;;;3.05;1.23;;;18.00;43.50;;;;;;6130356;23;20215;-81
2023/02/01 03:13:19;;;;;;;3.78;1.33;;;18.00;43.40;;;;;;6156447;23;20131;-80
2023/02/01 03:15:51;;;;;;;2.85;1.10;;;18.00;43.40;;;;;;6156549;23;20199;-80
2023/02/01 03:18:20;;;;;;;2.78;1.45;;;18.00;43.50;;;;;;6156609;23;20167;-80
2023/02/01 03:20:47;;;;;;;2.63;1.42;;;18.00;43.50;;;;;;6130485;23;20170;-80
2023/02/01 03:23:14;;;;;;;2.55;1.35;;;18.00;43.50;;;;;;6130290;23;20142;-80
2023/02/01 03:25:40;;;;;;;2.70;1.30;;;18.00;44.20;;;;;;6156440;23;20139;-80
2023/02/01 03:28:08;;;;;;;2.47;1.45;;;18.00;43.60;;;;;;6156671;23;20276;-80
2023/02/01 03:30:36;;;;;;;1.60;1.30;;;18.00;43.70;;;;;;6130529;23;20595;-80
2023/02/01 03:33:04;;;;;;;1.63;1.30;;;17.90;43.70;;;;;;6156181;23;20136;-80
2023/02/01 03:35:37;;;;;;;4.35;1.30;;;17.90;43.60;;;;;;6105919;23;20190;-80
2023/02/01 03:38:13;;;;;;;2.25;1.30;;;17.90;43.60;;;;;;6106900;23;20127;-80
2023/02/01 03:40:39;;;;;;;1.45;1.27;;;18.00;43.50;;;;;;6156453;23;20178;-79
2023/02/01 03:43:05;;;;;;;1.60;1.25;;;18.00;43.60;;;;;;6156247;23;20127;-80
2023/02/01 03:45:35;;;;;;;2.53;1.40;;;18.00;43.50;;;;;;6156445;23;20146;-79
2023/02/01 03:48:00;;;;;;;1.67;1.15;;;18.00;43.50;;;;;;6105592;23;20151;-80
2023/02/01 03:50:26;;;;;;;2.33;1.40;;;18.00;43.60;;;;;;6156190;23;20135;-80
2023/02/01 03:52:55;;;;;;;2.20;1.30;;;18.00;43.60;;;;;;6081520;23;20197;-80
2023/02/01 03:55:22;;;;;;;2.42;1.40;;;18.00;43.70;;;;;;6156000;23;20155;-80
2023/02/01 03:57:55;;;;;;;2.03;1.33;;;17.90;43.70;;;;;;6105805;23;20135;-80
2023/02/01 04:00:22;;;;;;;3.10;1.50;;;17.90;43.70;;;;;;6129991;23;20136;-80
2023/02/01 04:02:48;;;;;;;1.85;1.30;;;17.90;43.80;;;;;;6106034;23;20131;-80
2023/02/01 04:05:14;;;;;;;3.58;1.63;;;17.90;43.70;;;;;;6156004;23;20143;-80
2023/02/01 04:07:39;;;;;;;3.00;1.30;;;17.90;43.80;;;;;;6130313;23;20144;-80
2023/02/01 04:10:06;;;;;;;2.28;1.50;;;17.90;43.70;;;;;;6105745;23;20186;-80
2023/02/01 04:12:31;;;;;;;2.03;1.35;;;17.90;43.70;;;;;;6130119;23;20623;-80
2023/02/01 04:14:57;;;;;;;2.17;1.42;;;17.90;43.80;;;;;;6156199;23;20177;-80
2023/02/01 04:17:23;;;;;;;2.10;1.38;;;17.90;43.70;;;;;;6155805;23;20610;-79
2023/02/01 04:19:49;;;;;;;2.85;1.50;;;17.90;43.90;;;;;;6130296;23;20139;-79
2023/02/01 04:22:15;;;;;;;2.92;1.15;;;17.90;43.90;;;;;;6130373;23;20595;-79
2023/02/01 04:24:40;;;;;;;2.28;1.35;;;17.90;43.80;;;;;;6155821;23;20135;-80
2023/02/01 04:27:06;;;;;;;2.50;1.10;;;17.90;43.90;;;;;;6155812;23;20146;-80
2023/02/01 04:29:31;;;;;;;1.67;1.20;;;17.90;43.90;;;;;;6156224;23;20468;-80
2023/02/01 04:31:57;;;;;;;2.28;1.60;;;17.90;43.90;;;;;;6129805;23;20471;-80
2023/02/01 04:34:24;;;;;;;2.58;1.20;;;17.90;43.90;;;;;;6129972;23;20190;-80
2023/02/01 04:36:50;;;;;;;1.70;1.23;;;17.90;44.00;;;;;;6156108;23;20202;-79
2023/02/01 04:39:16;;;;;;;1.75;1.30;;;17.80;43.90;;;;;;6130607;23;20146;-80
2023/02/01 04:41:42;;;;;;;2.78;1.65;;;17.80;44.10;;;;;;6156222;23;20467;-79
2023/02/01 04:44:12;;;;;;;2.60;1.50;;;17.80;44.00;;;;;;6155746;23;20143;-79
2023/02/01 04:46:38;;;;;;;3.80;1.60;;;17.80;44.10;;;;;;6131442;23;20143;-79
2023/02/01 04:49:03;;;;;;;2.10;1.40;;;17.80;44.10;;;;;;6158232;23;20144;-79
2023/02/01 04:51:30;;;;;;;2.92;1.45;;;17.80;44.00;;;;;;6157786;23;20518;-79
2023/02/01 04:53:55;;;;;;;2.15;1.48;;;17.80;44.10;;;;;;6158174;23;20143;-79
2023/02/01 04:56:21;;;;;;;3.35;1.30;;;17.80;44.10;;;;;;6131600;23;20179;-79
2023/02/01 04:58:47;;;;;;;4.18;1.50;;;17.80;44.10;;;;;;6157667;23;20140;-79
2023/02/01 05:01:12;;;;;;;2.83;1.25;;;17.80;44.10;;;;;;6157800;23;20136;-79
2023/02/01 05:03:38;;;;;;;2.03;1.33;;;17.80;44.10;;;;;;6157612;23;20140;-79
2023/02/01 05:06:04;;;;;;;2.95;1.30;;;17.80;44.20;;;;;;6157585;23;20506;-79
2023/02/01 05:08:30;;;;;;;3.05;1.48;;;17.80;44.10;;;;;;6131754;23;20143;-79
2023/02/01 05:10:56;;;;;;;3.13;1.65;;;17.80;44.20;;;;;;6131715;23;20146;-79
2023/02/01 05:16:05;;;;;;;2.30;1.35;;;17.80;44.30;;;;;;6135298;23;20167;-79
2023/02/01 05:18:30;;;;;;;2.65;1.30;;;17.80;44.10;;;;;;6157522;23;20131;-80
2023/02/01 05:20:56;;;;;;;1.63;1.20;;;17.80;44.20;;;;;;6131766;23;20515;-79
2023/02/01 05:23:22;;;;;;;1.95;1.20;;;17.80;44.30;;;;;;6157488;23;20509;-79
2023/02/01 05:25:47;;;;;;;1.15;1.05;;;17.80;44.40;;;;;;6131707;23;20193;-79
2023/02/01 05:28:13;;;;;;;2.50;1.40;;;17.80;44.40;;;;;;6158129;23;20144;-79
2023/02/01 05:30:39;;;;;;;2.20;1.17;;;17.70;44.50;;;;;;6157274;23;20571;-79
2023/02/01 05:33:04;;;;;;;1.83;1.27;;;17.60;44.40;;;;;;6157346;23;20241;-80
2023/02/01 05:35:30;;;;;;;2.42;1.48;;;17.70;44.50;;;;;;6131129;23;20657;-80
2023/02/01 05:37:56;;;;;;;2.33;1.38;;;17.70;44.50;;;;;;6131581;23;20494;-79
2023/02/01 05:40:21;;;;;;;2.22;1.33;;;17.70;44.50;;;;;;6131785;23;20143;-80
2023/02/01 05:42:47;;;;;;;1.55;1.00;;;17.70;45.10;;;;;;6157249;23;20226;-80
2023/02/01 05:45:13;;;;;;;2.00;1.30;;;17.70;44.40;;;;;;6157167;23;20143;-80
2023/02/01 05:47:38;;;;;;;2.33;1.25;;;17.70;44.40;;;;;;6157277;23;20248;-80
2023/02/01 05:50:05;;;;;;;2.70;1.40;;;17.70;44.40;;;;;;6131510;23;20227;-80
2023/02/01 05:52:30;;;;;;;1.98;1.40;;;17.70;44.40;;;;;;6131207;23;20171;-80
2023/02/01 05:54:56;;;;;;;3.38;1.50;;;17.80;44.40;;;;;;6157291;23;20582;-79
2023/02/01 05:57:22;;;;;;;2.85;1.40;;;17.70;44.40;;;;;;6130927;23;20160;-80
2023/02/01 05:59:48;;;;;;;2.55;1.40;;;17.70;44.40;;;;;;6157926;23;20222;-79
2023/02/01 06:02:15;;;;;;;1.42;1.20;;;17.70;44.40;;;;;;6157328;23;20132;-79
2023/02/01 06:04:41;;;;;;;2.30;1.33;;;17.70;44.40;;;;;;6131085;23;20242;-80
2023/02/01 06:07:08;;;;;;;2.53;1.33;;;17.70;44.40;;;;;;6131571;23;20147;-80
2023/02/01 06:09:35;;;;;;;2.45;1.30;;;17.70;44.40;;;;;;6131126;23;20167;-79
2023/02/01 06:12:00;;;;;;;2.17;1.45;;;17.70;44.40;;;;;;6106698;23;20151;-80
2023/02/01 06:14:27;;;;;;;1.48;1.10;;;17.70;44.50;;;;;;6157037;23;20471;-80
2023/02/01 06:16:53;;;;;;;2.13;1.35;;;17.70;44.50;;;;;;6130713;23;20167;-79
2023/02/01 06:19:19;;;;;;;1.73;1.23;;;17.70;44.40;;;;;;6106065;23;20142;-79
2023/02/01 06:21:45;;;;;;;1.83;1.23;;;17.70;44.50;;;;;;6156842;23;20135;-80
2023/02/01 06:24:11;;;;;;;2.30;1.27;;;17.80;44.50;;;;;;6156751;23;20590;-79
2023/02/01 06:26:37;;;;;;;1.38;1.05;;;17.70;44.40;;;;;;6157110;23;20231;-79
2023/02/01 06:29:02;;;;;;;3.53;1.40;;;17.70;44.60;;;;;;6155808;23;20135;-80
2023/02/01 06:31:28;;;;;;;1.67;1.10;;;17.70;44.60;;;;;;6156336;23;20144;-81
2023/02/01 06:33:54;;;;;;;2.10;1.30;;;17.70;44.60;;;;;;6156700;23;20657;-80
2023/02/01 06:36:21;;;;;;;1.35;1.20;;;17.70;45.20;;;;;;6155973;23;20199;-80
2023/02/01 06:38:47;;;;;;;1.52;1.25;;;17.70;44.60;;;;;;6130650;23;20452;-80
2023/02/01 06:41:13;;;;;;;2.50;1.17;;;17.70;44.70;;;;;;6106017;23;20143;-80
2023/02/01 06:43:38;;;;;;;1.80;1.40;;;17.70;44.60;;;;;;6129724;23;20223;-80
2023/02/01 06:46:05;;;;;;;2.15;1.50;;;17.70;44.70;;;;;;6130373;23;20174;-80
2023/02/01 06:48:32;;;;;;;3.05;1.48;;;17.70;44.60;;;;;;6105979;23;20167;-80
2023/02/01 06:50:57;;;;;;;3.85;1.30;;;17.70;44.70;;;;;;6156868;23;20467;-82
2023/02/01 06:53:23;;;;;;;1.92;1.27;;;17.60;44.70;;;;;;6156842;23;20223;-80
2023/02/01 06:55:55;;;;;;;1.73;1.38;;;17.70;44.80;;;;;;6130668;23;20488;-80
2023/02/01 06:58:21;;;;;;;2.10;1.40;;;17.70;44.80;;;;;;6131421;23;20206;-80
2023/02/01 07:00:47;;;;;;;2.75;1.52;;;17.70;44.80;;;;;;6130972;23;20132;-80
2023/02/01 07:03:13;;;;;;;3.25;1.55;;;17.70;44.80;;;;;;6156876;23;20138;-80
2023/02/01 07:05:38;;;;;;;2.97;1.38;;;17.70;44.80;;;;;;6156575;23;20452;-80
2023/02/01 07:08:04;;;;;;;2.53;1.58;;;17.70;44.80;;;;;;6130638;23;20471;-80
2023/02/01 07:10:30;;;;;;;3.38;1.40;;;17.70;44.90;;;;;;6156894;23;20589;-80
2023/02/01 07:12:57;;;;;;;1.30;1.20;;;17.70;44.80;;;;;;6156833;23;20132;-80
2023/02/01 07:15:23;;;;;;;3.15;1.50;;;17.70;44.90;;;;;;6130771;23;20148;-80
2023/02/01 07:17:49;;;;;;;4.07;1.35;;;17.70;44.90;;;;;;6130519;23;20168;-80
2023/02/01 07:20:15;;;;;;;5.47;1.52;;;17.70;45.00;;;;;;6130091;23;20202;-80
2023/02/01 07:22:41;;;;;;;2.78;1.67;;;17.70;45.10;;;;;;6130144;23;20139;-80
2023/02/01 07:25:07;;;;;;;8.02;1.70;;;17.70;45.20;;;;;;6130253;23;20148;-80
2023/02/01 07:27:34;;;;;;;6.60;1.42;;;17.70;45.40;;;;;;6156430;23;20140;-80
2023/02/01 07:30:02;;;;;;;6.05;1.50;;;17.70;45.40;;;;;;6130233;23;20555;-80
2023/02/01 07:32:30;;;;;;;4.53;1.70;;;17.70;45.10;;;;;;6130315;23;20147;-80
2023/02/01 07:34:57;;;;;;;5.68;1.77;;;17.80;44.90;;;;;;6106288;23;20598;-80
2023/02/01 07:37:23;;;;;;;3.28;1.33;;;17.90;44.80;;;;;;6129895;23;20195;-80
2023/02/01 07:39:50;;;;;;;1.77;1.10;;;17.90;44.40;;;;;;6129329;23;20132;-80
2023/02/01 07:42:16;;;;;;;1.38;1.27;;;18.00;44.40;;;;;;6155738;23;20128;-80
2023/02/01 07:44:42;;;;;;;3.53;1.67;;;18.00;44.20;;;;;;6130362;23;20146;-80
2023/02/01 07:47:07;;;;;;;2.33;1.33;;;18.10;44.00;;;;;;6130118;23;20444;-80
2023/02/01 07:49:33;;;;;;;2.83;1.20;;;18.10;43.90;;;;;;6130076;23;20219;-80
2023/02/01 07:51:58;;;;;;;1.70;1.20;;;18.10;43.90;;;;;;6129865;23;20534;-80
2023/02/01 07:54:24;;;;;;;3.10;1.20;;;18.10;44.00;;;;;;6130283;23;20173;-80
2023/02/01 07:56:50;;;;;;;1.95;1.17;;;18.20;43.90;;;;;;6129829;23;20262;-81
2023/02/01 07:59:16;;;;;;;1.17;1.08;;;18.20;44.10;;;;;;6156150;23;20452;-80
2023/02/01 08:01:41;;;;;;;2.42;1.17;;;18.20;43.80;;;;;;6129357;23;20147;-80
2023/02/01 08:04:08;;;;;;;2.63;1.20;;;18.20;43.90;;;;;;6129411;23;20626;-80
2023/02/01 08:06:34;;;;;;;5.85;1.40;;;18.20;43.80;;;;;;6065354;23;20157;-79
2023/02/01 08:09:01;;;;;;;3.75;1.58;;;18.20;44.10;;;;;;6044959;23;20204;-80
2023/02/01 08:11:28;;;;;;;2.33;1.17;;;18.20;44.00;;;;;;6067521;23;20153;-80
2023/02/01 08:14:18;;;;;;;2.88;1.30;;;18.20;43.90;;;;;;6066920;23;20145;-80
2023/02/01 08:16:54;;;;;;;1.88;1.48;;;18.30;44.00;;;;;;6065894;23;20180;-80
2023/02/01 08:19:34;;;;;;;3.92;1.23;;;18.30;43.80;;;;;;6065802;23;20149;-80
2023/02/01 08:22:01;;;;;;;1.88;1.10;;;18.30;44.60;;;;;;6065245;23;20145;-80
2023/02/01 08:24:27;;;;;;;1.42;1.10;;;18.20;44.00;;;;;;6065441;23;20160;-80
2023/02/01 08:26:53;;;;;;;3.72;1.23;;;18.20;44.20;;;;;;6041591;23;20161;-80
2023/02/01 08:29:18;;;;;;;2.35;1.00;;;18.20;44.20;;;;;;6066030;23;20146;-80
2023/02/01 08:31:44;;;;;;;3.95;1.30;;;18.20;44.30;;;;;;6065752;23;20209;-80
2023/02/01 08:34:11;;;;;;;1.92;1.30;;;18.20;44.40;;;;;;6066092;23;20153;-80
2023/02/01 08:36:38;;;;;;;2.58;1.30;;;18.20;44.20;;;;;;6065035;23;20201;-81
2023/02/01 08:39:08;;;;;;;4.57;1.08;;;18.10;44.50;;;;;;6065798;23;20141;-80
2023/02/01 08:41:34;;;;;;;2.20;1.30;;;18.20;44.40;;;;;;6066158;23;20161;-81
2023/02/01 08:44:00;;;;;;;1.67;1.17;;;18.20;44.20;;;;;;6076665;23;20223;-80
2023/02/01 08:46:25;;;;;;;2.17;1.02;;;18.20;44.40;;;;;;6156091;23;20508;-80
2023/02/01 08:48:51;;;;;;;1.58;1.30;;;18.20;44.40;;;;;;6129697;23;20143;-80
2023/02/01 08:51:18;;;;;;;1.95;1.10;;;18.20;44.20;;;;;;6156153;23;20420;-80
2023/02/01 08:53:44;;;;;;;1.52;1.10;;;18.30;44.20;;;;;;6129299;23;20136;-80
2023/02/01 08:56:20;;;;;;;2.03;1.27;;;18.30;44.30;;;;;;6155380;23;20166;-80
2023/02/01 08:58:46;;;;;;;1.75;1.30;;;18.20;44.00;;;;;;6041376;23;20177;-80
2023/02/01 09:01:14;;;;;;;1.10;0.95;;;18.30;43.90;;;;;;6065693;23;20542;-80
2023/02/01 09:03:39;;;;;;;1.85;1.00;;;18.40;44.10;;;;;;6065469;23;20199;-80
2023/02/01 09:06:08;;;;;;;2.75;1.33;;;18.40;43.90;;;;;;6065550;23;20149;-80
2023/02/01 09:08:34;;;;;;;2.83;1.10;;;18.40;44.10;;;;;;6065831;23;20593;-80
2023/02/01 09:11:00;;;;;;;3.45;1.13;;;18.30;44.00;;;;;;6065426;23;20149;-80
2023/02/01 09:13:26;;;;;;;2.08;1.10;;;18.50;43.80;;;;;;6065754;23;20601;-80
2023/02/01 09:15:52;;;;;;;1.58;0.95;;;18.50;44.00;;;;;;6065351;23;20284;-81
2023/02/01 09:18:18;;;;;;;2.33;1.30;;;18.50;43.80;;;;;;6065481;23;20244;-81
2023/02/01 09:20:43;;;;;;;1.70;1.00;;;18.40;43.60;;;;;;6065552;23;20470;-81
2023/02/01 09:23:09;;;;;;;1.50;0.98;;;18.40;44.20;;;;;;6065493;23;20576;-80
2023/02/01 09:25:37;;;;;;;1.95;0.95;;;18.40;44.00;;;;;;6065403;23;20141;-80
2023/02/01 09:28:05;;;;;;;1.77;1.10;;;18.40;44.50;;;;;;6065531;23;20142;-81
2023/02/01 09:30:32;;;;;;;1.48;0.90;;;18.40;44.60;;;;;;6141408;23;20147;-81
2023/02/01 09:32:58;;;;;;;1.75;1.25;;;18.30;44.80;;;;;;6156188;23;20136;-80
2023/02/01 09:35:23;;;;;;;2.08;0.93;;;18.30;45.00;;;;;;6157389;23;20468;-81
2023/02/01 09:37:49;;;;;;;3.17;1.20;;;18.30;45.00;;;;;;6131495;23;20179;-81
2023/02/01 09:40:16;;;;;;;3.75;1.25;;;18.30;45.00;;;;;;6157722;23;20143;-81
2023/02/01 09:42:57;;;;;;;6.78;1.15;;;18.30;45.00;;;;;;6076763;23;20152;-80
2023/02/01 09:45:31;;;;;;;2.10;1.10;;;18.30;45.00;;;;;;6100375;23;20242;-81
2023/02/01 09:48:17;;;;;;;2.25;1.30;;;18.30;45.00;;;;;;6100814;23;20232;-80
2023/02/01 09:50:49;;;;;;;3.83;1.20;;;18.30;45.00;;;;;;6125015;23;20184;-81
2023/02/01 09:53:21;;;;;;;1.25;0.88;;;18.40;45.00;;;;;;6077570;23;20453;-82
2023/02/01 09:55:49;;;;;;;1.63;0.93;;;18.40;44.70;;;;;;6077050;23;20179;-81
2023/02/01 09:58:36;;;;;;;1.80;0.93;;;18.40;44.70;;;;;;6100337;23;20147;-81
2023/02/01 10:01:09;;;;;;;3.22;1.10;;;18.40;44.90;;;;;;6124772;23;20508;-80
2023/02/01 10:03:35;;;;;;;1.95;0.90;;;18.40;44.90;;;;;;6101259;23;20167;-81
2023/02/01 10:06:25;;;;;;;4.20;0.90;;;18.40;44.90;;;;;;6100313;23;20147;-81
2023/02/01 10:09:30;;;;;;;1.70;1.05;;;18.40;45.00;;;;;;6125196;23;20591;-81
2023/02/01 10:12:27;;;;;;;4.82;1.27;;;18.40;45.30;;;;;;6100089;23;20173;-81
2023/02/01 10:15:03;;;;;;;1.60;0.93;;;18.40;45.30;;;;;;6125131;23;20148;-81
2023/02/01 10:17:57;;;;;;;1.90;1.00;;;18.40;45.20;;;;;;6101087;23;20297;-81
2023/02/01 10:20:56;;;;;;;3.05;1.02;;;18.40;45.30;;;;;;6123111;23;20147;-81
2023/02/01 10:23:42;;;;;;;1.25;1.00;;;18.50;45.30;;;;;;6156769;23;20143;-81
2023/02/01 10:26:20;;;;;;;3.15;1.17;;;18.50;45.20;;;;;;6131174;23;20147;-80
2023/02/01 10:28:49;;;;;;;2.38;1.10;;;18.50;45.40;;;;;;6156470;23;20136;-80
2023/02/01 10:31:15;;;;;;;1.80;0.88;;;18.50;45.50;;;;;;6131218;23;20191;-80
2023/02/01 10:33:46;;;;;;;1.77;0.90;;;18.40;45.60;;;;;;6130923;23;20155;-81
2023/02/01 10:36:30;;;;;;;1.92;0.90;;;18.50;45.40;;;;;;6129847;23;20627;-81
2023/02/01 10:38:58;;;;;;;3.25;1.10;;;18.50;45.50;;;;;;6106489;23;20151;-81
2023/02/01 10:41:25;;;;;;;1.38;0.93;;;18.50;45.20;;;;;;6157814;23;20132;-81
2023/02/01 10:43:57;;;;;;;1.73;0.80;;;18.50;45.40;;;;;;6130679;23;20576;-80
2023/02/01 10:46:23;;;;;;;2.53;0.80;;;18.50;45.30;;;;;;6048597;23;20251;-81
2023/02/01 10:48:49;;;;;;;1.20;0.80;;;18.60;45.40;;;;;;6096156;23;20180;-81
2023/02/01 10:51:21;;;;;;;1.15;0.88;;;18.50;45.50;;;;;;6072198;23;20162;-81
2023/02/01 10:53:53;;;;;;;3.63;1.20;;;18.50;45.40;;;;;;6072409;23;20149;-81
2023/02/01 10:56:25;;;;;;;2.90;1.17;;;18.60;45.40;;;;;;6095075;23;20184;-81
2023/02/01 10:58:51;;;;;;;4.22;1.10;;;18.60;45.50;;;;;;6095197;23;20145;-81
2023/02/01 11:01:24;;;;;;;6.28;1.00;;;18.60;45.60;;;;;;6070964;23;20236;-81
2023/02/01 11:03:55;;;;;;;4.05;0.90;;;18.60;45.60;;;;;;6071940;23;20163;-81
2023/02/01 11:06:33;;;;;;;3.13;0.93;;;18.60;45.60;;;;;;6037534;23;20166;-80
2023/02/01 11:09:09;;;;;;;1.75;0.90;;;18.60;45.70;;;;;;6037481;23;20202;-82
2023/02/01 11:11:52;;;;;;;5.00;1.10;;;18.50;45.60;;;;;;6037763;23;20164;-81
2023/02/01 11:14:37;;;;;;;4.70;1.00;;;18.50;45.70;;;;;;6038395;23;20593;-81
2023/02/01 11:17:23;;;;;;;2.58;0.90;;;18.60;45.50;;;;;;6060346;23;20204;-80
2023/02/01 11:20:06;;;;;;;5.10;0.90;;;18.60;45.70;;;;;;6096194;23;20595;-80
2023/02/01 11:22:32;;;;;;;1.63;0.93;;;18.50;45.70;;;;;;6046850;23;20156;-81
2023/02/01 11:24:59;;;;;;;6.38;1.00;;;18.60;45.50;;;;;;6095199;23;20141;-82
2023/02/01 11:27:24;;;;;;;1.50;0.80;;;18.60;45.80;;;;;;6047147;23;20163;-81
2023/02/01 11:29:51;;;;;;;3.20;0.90;;;18.50;45.70;;;;;;6071786;23;20219;-81
2023/02/01 11:32:18;;;;;;;2.25;0.85;;;18.60;45.70;;;;;;6047108;23;20693;-81
2023/02/01 11:34:59;;;;;;;4.57;1.52;;;18.50;45.40;;;;;;6047391;23;20577;-79
2023/02/01 11:37:27;;;;;;;2.67;1.00;;;18.60;45.60;;;;;;6103964;23;20202;-79
2023/02/01 11:39:56;;;;;;;5.97;1.02;;;18.60;45.40;;;;;;6156554;23;20645;-79
2023/02/01 11:42:22;;;;;;;2.88;0.85;;;18.60;45.30;;;;;;6131156;23;20585;-80
2023/02/01 11:44:47;;;;;;;4.00;0.95;;;18.60;45.70;;;;;;6082271;23;20227;-80
2023/02/01 11:47:28;;;;;;;1.10;0.80;;;18.60;45.60;;;;;;6155484;23;20163;-81
2023/02/01 11:49:57;;;;;;;0.93;0.88;;;18.60;45.80;;;;;;6155943;23;20223;-80
2023/02/01 11:52:49;;;;;;;6.72;0.95;;;18.60;45.60;;;;;;6130474;23;20579;-78
2023/02/01 11:55:57;;;;;;;4.07;1.00;;;18.60;45.70;;;;;;6133822;23;20219;-79
2023/02/01 11:58:37;;;;;;;2.05;0.70;;;18.60;45.40;;;;;;6135715;23;20159;-81
2023/02/01 12:01:27;;;;;;;1.60;0.85;;;18.60;45.50;;;;;;6132021;23;20635;-81
2023/02/01 12:04:27;;;;;;;2.10;0.70;;;18.70;45.40;;;;;;6155614;23;20142;-80
2023/02/01 12:06:56;;;;;;;4.15;1.00;;;18.70;45.50;;;;;;6155818;23;20241;-80
2023/02/01 12:09:46;;;;;;;0.77;0.73;;;18.70;45.70;;;;;;6130224;23;20227;-80
2023/02/01 12:12:39;;;;;;;0.95;0.80;;;18.60;45.50;;;;;;6129384;23;20163;-80
2023/02/01 12:15:47;;;;;;;1.55;0.60;;;18.70;45.40;;;;;;6104926;23;20218;-79
2023/02/01 12:18:39;;;;;;;6.30;1.10;;;18.70;45.60;;;;;;6118173;23;20143;-80
2023/02/01 12:21:47;;;;;;;1.20;0.63;;;18.70;45.80;;;;;;6134870;23;20138;-80
2023/02/01 12:24:39;;;;;;;3.13;0.90;;;18.60;45.70;;;;;;6137999;23;20145;-79
2023/02/01 12:31:30;;;;;;;4.05;0.80;;;18.60;45.70;;;;;;5964657;23;20673;-80
2023/02/01 12:44:56;;;;;;;2.08;0.70;;;18.60;45.60;;;;;;5954757;23;20201;-82
2023/02/01 12:48:17;;;;;;;1.35;0.85;;;18.60;45.40;;;;;;6038587;23;20236;-80
2023/02/01 12:50:46;;;;;;;0.88;0.70;;;18.70;45.60;;;;;;5952785;24;20545;-80
2023/02/01 12:53:19;;;;;;;1.88;0.90;;;18.60;45.50;;;;;;5952752;24;20152;-81
2023/02/01 12:55:51;;;;;;;0.63;0.63;;;18.70;45.40;;;;;;5952648;24;20160;-81
2023/02/01 12:58:23;;;;;;;1.02;0.80;;;18.70;45.40;;;;;;5952880;24;20459;-81
2023/02/01 13:00:54;;;;;;;0.77;0.60;;;18.70;45.40;;;;;;5930659;24;20181;-79
2023/02/01 13:03:53;;;;;;;1.58;0.70;;;18.70;45.50;;;;;;5952576;24;20254;-81
2023/02/01 13:06:26;;;;;;;0.80;0.70;;;18.60;45.50;;;;;;5952347;24;20196;-80
2023/02/01 13:09:00;;;;;;;1.48;0.60;;;18.60;45.50;;;;;;5945301;23;20158;-81
2023/02/01 13:11:31;;;;;;;2.75;0.80;;;18.60;45.50;;;;;;5988435;23;20154;-80
2023/02/01 13:14:03;;;;;;;5.13;0.93;;;18.60;45.60;;;;;;6010878;23;20490;-80
2023/02/01 13:16:37;;;;;;;0.82;0.60;;;18.60;45.50;;;;;;5987407;23;20537;-80
2023/02/01 13:19:12;;;;;;;5.03;0.82;;;18.60;45.30;;;;;;6010691;23;20215;-80
2023/02/01 13:21:41;;;;;;;2.50;0.80;;;18.70;45.40;;;;;;5954766;23;20181;-80
2023/02/01 13:24:18;;;;;;;4.80;0.90;;;18.70;45.10;;;;;;6010633;23;20226;-81
2023/02/01 13:26:44;;;;;;;3.03;0.70;;;18.80;45.10;;;;;;6056373;23;20271;-80
2023/02/01 13:29:09;;;;;;;2.78;0.75;;;18.80;44.90;;;;;;6128150;23;20172;-80
2023/02/01 13:32:06;;;;;;;2.00;0.70;;;18.70;45.70;;;;;;6078153;23;20246;-80
2023/02/01 13:34:57;;;;;;;4.15;1.15;;;18.70;45.20;;;;;;6102509;23;20152;-81
2023/02/01 13:37:55;;;;;;;4.25;0.90;;;18.70;45.20;;;;;;6145979;23;20187;-80
2023/02/01 13:40:37;;;;;;;1.52;0.75;;;18.70;45.10;;;;;;6111836;23;20160;-80